Time;durP1;ratioP1;P1;durP2;ratioP2;P2;SDS_P1;SDS_P2;PMS_P1;PMS_P2;Temp;Humidity;BMP_temperature;BMP_pressure;BME280_temperature;BME280_humidity;BME280_pressure;Samples;Min_cycle;Max_cycle;Signal;HPM_P1;HPM_P2
2023/03/12 00:01:26;;;;;;;2.58;1.40;;;0.10;99.90;;;;;;7401496;19;19917;-74
2023/03/12 00:03:55;;;;;;;4.20;1.95;;;1.40;99.90;;;;;;7401370;19;19921;-74
2023/03/12 00:06:24;;;;;;;6.90;1.60;;;0.90;99.90;;;;;;7401434;19;19915;-74
2023/03/12 00:08:53;;;;;;;3.38;1.48;;;1.20;99.90;;;;;;7401802;19;19918;-74
2023/03/12 00:11:22;;;;;;;2.72;0.93;;;1.40;99.90;;;;;;7401101;19;19915;-74
2023/03/12 00:13:55;;;;;;;2.60;1.60;;;0.80;99.90;;;;;;7399799;19;19922;-74
2023/03/12 00:16:25;;;;;;;4.07;1.50;;;0.20;99.90;;;;;;7399546;19;19922;-74
2023/03/12 00:18:55;;;;;;;5.93;1.30;;;0.30;99.90;;;;;;7401184;19;19918;-75
2023/03/12 00:21:25;;;;;;;5.70;1.35;;;1.40;99.90;;;;;;7401428;19;19987;-74
2023/03/12 00:23:55;;;;;;;3.75;1.35;;;-0.20;99.90;;;;;;7401407;19;19925;-74
2023/03/12 00:26:26;;;;;;;5.63;1.98;;;-0.10;99.90;;;;;;7399218;19;19927;-74
2023/03/12 00:28:58;;;;;;;4.30;1.80;;;1.00;99.90;;;;;;7400539;19;19974;-74
2023/03/12 00:31:30;;;;;;;3.60;1.73;;;0.50;99.90;;;;;;7400599;19;19915;-76
2023/03/12 00:33:59;;;;;;;4.70;1.95;;;0.20;99.90;;;;;;7399106;19;19972;-74
2023/03/12 00:36:30;;;;;;;3.53;1.73;;;0.90;99.90;;;;;;7400556;19;20350;-75
2023/03/12 00:39:01;;;;;;;4.85;2.00;;;-0.30;99.90;;;;;;7400313;19;19915;-74
2023/03/12 00:41:31;;;;;;;5.70;1.98;;;1.00;99.90;;;;;;7400517;19;19995;-75
2023/03/12 00:44:02;;;;;;;5.60;1.50;;;-0.10;99.90;;;;;;7400553;19;20674;-75
2023/03/12 00:46:32;;;;;;;11.45;1.85;;;1.00;99.90;;;;;;7403784;19;19923;-74
2023/03/12 00:49:01;;;;;;;3.35;1.48;;;1.00;99.90;;;;;;7400254;19;20345;-75
2023/03/12 00:51:30;;;;;;;2.47;1.58;;;1.00;99.90;;;;;;7398159;19;19923;-74
2023/03/12 00:53:59;;;;;;;2.28;1.45;;;-0.30;99.90;;;;;;7398198;19;19922;-74
2023/03/12 00:56:28;;;;;;;3.13;1.40;;;-0.20;99.90;;;;;;7399788;19;19911;-74
2023/03/12 00:58:57;;;;;;;3.22;1.42;;;-0.50;99.90;;;;;;7399916;19;19923;-74
2023/03/12 01:01:28;;;;;;;2.40;1.48;;;0.30;99.90;;;;;;7399998;19;19986;-74
2023/03/12 01:03:58;;;;;;;3.40;1.55;;;1.20;99.90;;;;;;7399916;19;20355;-74
2023/03/12 01:06:27;;;;;;;4.18;1.52;;;0.50;99.90;;;;;;7399714;19;19927;-74
2023/03/12 01:08:56;;;;;;;2.67;1.30;;;0.00;99.90;;;;;;7399674;19;19919;-74
2023/03/12 01:11:25;;;;;;;6.35;1.42;;;-0.40;99.90;;;;;;7399285;19;19943;-74
2023/03/12 01:13:54;;;;;;;3.85;1.25;;;0.80;99.90;;;;;;7397748;19;19925;-74
2023/03/12 01:16:26;;;;;;;2.08;1.30;;;1.10;99.90;;;;;;7398946;19;19911;-74
2023/03/12 01:18:59;;;;;;;2.67;1.30;;;-0.50;99.90;;;;;;7398643;19;19911;-73
2023/03/12 01:21:29;;;;;;;3.65;1.30;;;0.10;99.90;;;;;;7398925;19;20324;-74
2023/03/12 01:23:58;;;;;;;4.65;1.38;;;0.40;99.90;;;;;;7398711;19;19915;-73
2023/03/12 01:26:28;;;;;;;2.65;1.13;;;0.70;99.90;;;;;;7398986;19;19918;-73
2023/03/12 01:28:57;;;;;;;3.35;1.70;;;1.00;99.90;;;;;;7402378;19;19918;-73
2023/03/12 01:31:26;;;;;;;4.55;1.38;;;0.90;99.90;;;;;;7405632;19;20268;-73
2023/03/12 01:33:57;;;;;;;4.00;1.48;;;-0.30;99.90;;;;;;7403892;19;20221;-73
2023/03/12 01:36:28;;;;;;;3.97;1.50;;;0.30;99.90;;;;;;7405736;19;19914;-73
2023/03/12 01:38:59;;;;;;;5.43;1.30;;;0.90;99.90;;;;;;7405804;19;19929;-73
2023/03/12 01:41:31;;;;;;;5.68;1.20;;;0.40;99.90;;;;;;7405009;19;19915;-74
2023/03/12 01:44:01;;;;;;;4.43;1.63;;;0.50;99.90;;;;;;7405297;19;19918;-73
2023/03/12 01:46:33;;;;;;;2.22;1.42;;;0.60;99.90;;;;;;7408837;19;19923;-73
2023/03/12 01:49:07;;;;;;;;;;;0.20;99.90;;;;;;7407707;19;19921;-74
2023/03/12 01:51:40;;;;;;;5.90;1.70;;;0.10;99.90;;;;;;7402827;19;19954;-74
2023/03/12 01:54:15;;;;;;;3.72;1.52;;;0.70;99.90;;;;;;7402763;19;19942;-74
2023/03/12 01:56:44;;;;;;;4.72;1.70;;;-0.70;99.90;;;;;;7405006;19;20348;-74
2023/03/12 01:59:18;;;;;;;3.60;1.60;;;0.00;99.90;;;;;;7404936;19;19931;-73
2023/03/12 02:01:49;;;;;;;4.57;1.80;;;0.20;99.90;;;;;;7404901;19;20297;-73
2023/03/12 02:04:22;;;;;;;3.42;1.50;;;0.90;99.90;;;;;;7404431;19;19921;-74
2023/03/12 02:06:58;;;;;;;2.15;1.48;;;-0.30;99.90;;;;;;7404560;19;19919;-74
2023/03/12 02:09:28;;;;;;;3.15;1.85;;;-0.70;99.90;;;;;;7404962;19;19926;-75
2023/03/12 02:11:57;;;;;;;3.42;1.50;;;;;;;;;;7404538;19;19914;-73
2023/03/12 02:14:26;;;;;;;3.47;1.45;;;-0.20;99.90;;;;;;7402517;19;19911;-74
2023/03/12 02:16:56;;;;;;;2.42;1.40;;;0.10;99.90;;;;;;7403655;19;19929;-74
2023/03/12 02:19:37;;;;;;;3.58;1.30;;;0.10;99.90;;;;;;7404161;19;19923;-74
2023/03/12 02:22:06;;;;;;;4.53;1.95;;;0.70;99.90;;;;;;7404026;19;20265;-74
2023/03/12 02:24:40;;;;;;;2.60;1.52;;;-0.80;99.90;;;;;;7403846;19;19941;-74
2023/03/12 02:27:12;;;;;;;2.42;1.42;;;0.10;99.90;;;;;;7404036;19;19917;-74
2023/03/12 02:29:46;;;;;;;3.70;1.63;;;0.30;99.90;;;;;;7403818;19;20307;-73
2023/03/12 02:32:22;;;;;;;3.42;1.40;;;0.10;99.90;;;;;;7403955;19;19914;-74
2023/03/12 02:34:51;;;;;;;2.78;1.50;;;0.70;99.90;;;;;;7401762;19;20333;-73
2023/03/12 02:37:21;;;;;;;2.63;1.70;;;0.70;99.90;;;;;;7404028;19;19915;-73
2023/03/12 02:39:56;;;;;;;3.13;1.88;;;0.60;99.90;;;;;;7403090;19;19915;-74
2023/03/12 02:42:28;;;;;;;4.30;1.90;;;0.60;99.90;;;;;;7403510;19;19924;-74
2023/03/12 02:44:57;;;;;;;4.20;1.40;;;-0.60;99.90;;;;;;7404359;19;19923;-74
2023/03/12 02:47:26;;;;;;;3.25;1.58;;;-0.50;99.90;;;;;;7403158;19;19923;-74
2023/03/12 02:49:56;;;;;;;3.22;1.83;;;0.90;99.90;;;;;;7402584;19;19926;-74
2023/03/12 02:52:24;;;;;;;4.82;1.73;;;0.70;99.90;;;;;;7403134;19;19918;-74
2023/03/12 02:54:53;;;;;;;3.28;2.10;;;0.40;99.90;;;;;;7401459;19;20388;-76
2023/03/12 02:57:22;;;;;;;3.45;1.55;;;;;;;;;;7403609;19;19919;-74
2023/03/12 02:59:54;;;;;;;3.58;1.95;;;0.70;99.90;;;;;;7403473;19;19917;-75
2023/03/12 03:02:23;;;;;;;3.55;1.80;;;0.30;99.90;;;;;;7402897;19;19918;-74
2023/03/12 03:04:52;;;;;;;3.22;1.52;;;0.50;99.90;;;;;;7403217;19;19923;-74
2023/03/12 03:07:20;;;;;;;4.85;1.80;;;0.40;99.90;;;;;;7403470;19;20292;-74
2023/03/12 03:09:49;;;;;;;4.57;1.90;;;0.60;99.90;;;;;;7403478;19;20016;-74
2023/03/12 03:12:18;;;;;;;3.17;2.17;;;;;;;;;;7402861;19;20352;-74
2023/03/12 03:14:47;;;;;;;6.95;2.10;;;-0.80;99.90;;;;;;7400865;19;20535;-74
2023/03/12 03:17:19;;;;;;;5.25;2.05;;;0.60;99.90;;;;;;7402736;19;19923;-74
2023/03/12 03:19:47;;;;;;;3.42;1.83;;;0.30;99.90;;;;;;7402617;19;19918;-75
2023/03/12 03:22:16;;;;;;;2.75;1.73;;;0.50;99.90;;;;;;7402591;19;19918;-74
2023/03/12 03:24:45;;;;;;;5.20;1.90;;;-0.60;99.90;;;;;;7402588;19;19915;-74
2023/03/12 03:27:14;;;;;;;4.15;1.70;;;0.00;99.90;;;;;;7402431;19;19922;-74
2023/03/12 03:29:43;;;;;;;2.30;1.58;;;-0.70;99.90;;;;;;7402301;19;19930;-74
2023/03/12 03:32:12;;;;;;;4.20;2.10;;;-0.20;99.90;;;;;;7402023;19;19910;-74
2023/03/12 03:34:43;;;;;;;4.13;1.88;;;0.70;99.90;;;;;;7401331;19;19919;-74
2023/03/12 03:37:12;;;;;;;2.38;1.67;;;0.30;99.90;;;;;;7402181;19;19910;-74
2023/03/12 03:39:41;;;;;;;2.67;1.90;;;-0.50;99.90;;;;;;7402110;19;19915;-74
2023/03/12 03:42:10;;;;;;;4.72;2.10;;;0.90;99.90;;;;;;7402112;19;19914;-74
2023/03/12 03:44:39;;;;;;;3.97;1.70;;;0.80;99.90;;;;;;7402615;19;19925;-74
2023/03/12 03:47:08;;;;;;;5.65;2.28;;;0.90;99.90;;;;;;7402838;19;19915;-74
2023/03/12 03:49:37;;;;;;;4.03;2.00;;;0.50;99.90;;;;;;7402166;19;19914;-75
2023/03/12 03:52:10;;;;;;;4.60;2.33;;;0.80;99.90;;;;;;7399985;19;19924;-74
2023/03/12 03:54:38;;;;;;;8.18;2.35;;;0.50;99.90;;;;;;7399944;19;19907;-75
2023/03/12 03:57:07;;;;;;;3.67;1.92;;;0.80;99.90;;;;;;7401697;19;19929;-74
2023/03/12 03:59:36;;;;;;;6.72;1.92;;;;;;;;;;7402236;19;19930;-74
2023/03/12 04:02:05;;;;;;;2.80;1.85;;;0.90;99.90;;;;;;7401418;19;19918;-74
2023/03/12 04:04:34;;;;;;;3.15;1.80;;;1.00;99.90;;;;;;7401433;19;20322;-74
2023/03/12 04:07:03;;;;;;;3.92;1.90;;;0.30;99.90;;;;;;7401257;19;19915;-74
2023/03/12 04:09:35;;;;;;;2.85;1.50;;;0.90;99.90;;;;;;7401972;19;19933;-74
2023/03/12 04:12:04;;;;;;;3.63;1.90;;;-0.20;99.90;;;;;;7402193;19;19930;-74
2023/03/12 04:14:33;;;;;;;3.60;1.70;;;0.00;99.90;;;;;;7400664;19;19914;-74
2023/03/12 04:17:01;;;;;;;2.97;1.70;;;0.90;99.90;;;;;;7401050;19;20377;-74
2023/03/12 04:19:30;;;;;;;4.70;1.58;;;0.30;99.90;;;;;;7401053;19;19937;-74
2023/03/12 04:21:59;;;;;;;2.95;1.33;;;0.40;99.90;;;;;;7401065;19;19929;-74
2023/03/12 04:24:28;;;;;;;2.75;1.60;;;0.80;99.90;;;;;;7400670;19;19925;-74
2023/03/12 04:27:00;;;;;;;2.65;1.75;;;-0.10;99.90;;;;;;7400821;19;20356;-74
2023/03/12 04:29:29;;;;;;;3.42;1.70;;;0.00;99.90;;;;;;7400655;19;19915;-73
2023/03/12 04:31:58;;;;;;;3.10;1.50;;;1.00;99.90;;;;;;7401475;19;20614;-74
2023/03/12 04:34:27;;;;;;;3.00;1.63;;;0.10;99.90;;;;;;7399880;19;19918;-74
2023/03/12 04:36:55;;;;;;;4.45;1.90;;;0.90;99.90;;;;;;7400728;19;19923;-74
2023/03/12 04:39:24;;;;;;;2.97;1.90;;;-0.40;99.90;;;;;;7400494;19;19906;-74
2023/03/12 04:41:53;;;;;;;4.30;1.60;;;0.20;99.90;;;;;;7400041;19;19921;-75
2023/03/12 04:44:25;;;;;;;2.38;1.48;;;0.60;99.90;;;;;;7400700;19;19914;-75
2023/03/12 04:46:53;;;;;;;2.40;1.42;;;0.40;99.90;;;;;;7399307;19;20344;-74
2023/03/12 04:49:22;;;;;;;3.75;1.67;;;1.20;99.90;;;;;;7399685;19;19921;-73
2023/03/12 04:51:51;;;;;;;4.20;1.50;;;-0.10;99.90;;;;;;7404620;19;20051;-73
2023/03/12 04:54:21;;;;;;;3.08;1.80;;;0.60;99.90;;;;;;7398745;19;19922;-73
2023/03/12 04:56:51;;;;;;;5.88;1.92;;;0.30;99.90;;;;;;7399837;19;19915;-73
2023/03/12 04:59:20;;;;;;;2.38;1.92;;;1.00;99.90;;;;;;7399416;19;19922;-74
2023/03/12 05:01:51;;;;;;;3.88;2.03;;;0.50;99.90;;;;;;7400230;19;19919;-74
2023/03/12 05:04:20;;;;;;;7.80;2.35;;;-0.10;99.90;;;;;;7406140;19;20272;-73
2023/03/12 05:06:49;;;;;;;4.10;2.20;;;0.90;99.90;;;;;;7406587;19;19919;-74
2023/03/12 05:09:18;;;;;;;6.15;2.15;;;0.20;99.90;;;;;;7406182;19;20352;-74
2023/03/12 05:11:46;;;;;;;4.53;2.08;;;-0.40;99.90;;;;;;7406510;19;19919;-74
2023/03/12 05:14:15;;;;;;;3.05;1.70;;;0.10;99.90;;;;;;7405383;19;20265;-74
2023/03/12 05:16:44;;;;;;;2.95;1.77;;;-0.20;99.90;;;;;;7405741;19;19910;-74
2023/03/12 05:19:16;;;;;;;5.82;1.95;;;-0.20;99.90;;;;;;7405834;19;20398;-74
2023/03/12 05:21:45;;;;;;;2.90;2.10;;;0.90;99.90;;;;;;7405831;19;19926;-74
2023/03/12 05:24:14;;;;;;;5.05;2.42;;;1.00;99.90;;;;;;7405715;19;20332;-74
2023/03/12 05:26:44;;;;;;;5.65;2.30;;;-0.20;99.90;;;;;;7405513;19;20355;-74
2023/03/12 05:29:13;;;;;;;6.45;2.10;;;0.30;99.90;;;;;;7406121;19;19923;-74
2023/03/12 05:31:42;;;;;;;3.72;2.15;;;-0.40;99.90;;;;;;7405813;19;19936;-74
2023/03/12 05:34:15;;;;;;;7.18;2.10;;;-0.20;99.90;;;;;;7404938;19;19915;-74
2023/03/12 05:36:45;;;;;;;7.50;2.67;;;-0.20;99.90;;;;;;7405625;19;19915;-74
2023/03/12 05:39:14;;;;;;;4.45;2.22;;;1.20;99.90;;;;;;7405241;19;19922;-74
2023/03/12 05:41:42;;;;;;;5.68;2.05;;;-0.30;99.90;;;;;;7405327;19;20356;-73
2023/03/12 05:44:14;;;;;;;5.63;2.25;;;0.60;99.90;;;;;;7405781;19;19918;-74
2023/03/12 05:46:43;;;;;;;2.80;1.88;;;1.10;99.90;;;;;;7405231;19;19930;-75
2023/03/12 05:49:13;;;;;;;5.35;2.13;;;0.10;99.90;;;;;;7405107;19;19914;-74
2023/03/12 05:51:44;;;;;;;5.00;2.80;;;0.20;99.90;;;;;;7403211;19;20548;-74
2023/03/12 05:54:13;;;;;;;5.60;2.70;;;0.20;99.90;;;;;;7403134;19;19939;-74
2023/03/12 05:56:43;;;;;;;6.00;2.25;;;-0.20;99.90;;;;;;7404773;19;19932;-74
2023/03/12 05:59:12;;;;;;;5.25;2.47;;;-0.10;99.90;;;;;;7405576;19;20245;-74
2023/03/12 06:01:41;;;;;;;8.90;2.58;;;0.40;99.90;;;;;;7404696;19;19922;-74
2023/03/12 06:04:11;;;;;;;5.28;3.08;;;-0.40;99.90;;;;;;7404508;19;19982;-74
2023/03/12 06:06:40;;;;;;;6.03;2.78;;;0.60;99.90;;;;;;7404933;19;20368;-74
2023/03/12 06:09:11;;;;;;;5.93;3.00;;;0.40;99.90;;;;;;7405101;19;19918;-74
2023/03/12 06:11:40;;;;;;;3.20;2.30;;;-0.30;99.90;;;;;;7404439;19;20350;-73
2023/03/12 06:14:09;;;;;;;5.35;2.88;;;-0.40;99.90;;;;;;7403451;19;19918;-74
2023/03/12 06:16:38;;;;;;;6.45;2.65;;;;;;;;;;7404074;19;19986;-74
2023/03/12 06:19:07;;;;;;;5.15;3.13;;;0.10;99.90;;;;;;7404076;19;20260;-74
2023/03/12 06:21:37;;;;;;;5.07;3.00;;;0.10;99.90;;;;;;7404292;19;19918;-74
2023/03/12 06:24:07;;;;;;;5.03;2.40;;;1.20;99.90;;;;;;7404342;19;19918;-74
2023/03/12 06:26:39;;;;;;;5.35;2.85;;;0.20;99.90;;;;;;7404155;19;19915;-74
2023/03/12 06:29:08;;;;;;;6.68;2.90;;;0.00;99.90;;;;;;7403835;19;19922;-73
2023/03/12 06:31:38;;;;;;;6.60;3.30;;;-0.20;99.90;;;;;;7403937;19;20261;-74
2023/03/12 06:34:07;;;;;;;7.93;2.85;;;0.80;99.90;;;;;;7403637;19;19915;-74
2023/03/12 06:36:36;;;;;;;6.38;3.28;;;0.00;99.90;;;;;;7403997;19;19915;-74
2023/03/12 06:39:08;;;;;;;5.20;3.20;;;1.20;99.90;;;;;;7403885;19;19954;-73
2023/03/12 06:41:40;;;;;;;3.90;2.92;;;0.50;99.90;;;;;;7403639;19;20028;-74
2023/03/12 06:44:09;;;;;;;4.78;3.03;;;0.40;99.90;;;;;;7404869;19;20285;-74
2023/03/12 06:46:38;;;;;;;7.53;3.55;;;;;;;;;;7403540;19;19918;-74
2023/03/12 06:49:07;;;;;;;5.80;3.00;;;0.30;99.90;;;;;;7403623;19;19926;-74
2023/03/12 06:51:36;;;;;;;5.35;2.75;;;0.00;99.90;;;;;;7401653;19;19915;-74
2023/03/12 06:54:05;;;;;;;5.90;2.85;;;1.30;99.90;;;;;;7402269;19;19939;-74
2023/03/12 06:56:34;;;;;;;13.80;4.28;;;1.00;99.90;;;;;;7401189;19;19932;-74
2023/03/12 06:59:07;;;;;;;6.07;2.95;;;1.10;99.90;;;;;;7403190;19;19915;-74
2023/03/12 07:01:36;;;;;;;5.38;3.13;;;;;;;;;;7403096;19;20260;-74
2023/03/12 07:04:05;;;;;;;8.43;3.60;;;0.70;99.90;;;;;;7403583;19;19919;-74
2023/03/12 07:06:34;;;;;;;5.38;3.30;;;0.80;99.90;;;;;;7403101;19;19918;-73
2023/03/12 07:09:03;;;;;;;7.47;3.33;;;0.50;99.90;;;;;;7403771;19;19929;-73
2023/03/12 07:11:32;;;;;;;7.00;3.28;;;0.30;99.90;;;;;;7402877;19;19923;-73
2023/03/12 07:14:01;;;;;;;6.47;3.05;;;;;;;;;;7402990;19;20359;-74
2023/03/12 07:16:33;;;;;;;4.88;3.00;;;1.60;99.90;;;;;;7400304;19;20333;-74
2023/03/12 07:19:02;;;;;;;6.72;3.50;;;0.40;99.90;;;;;;7402771;19;19919;-74
2023/03/12 07:21:32;;;;;;;7.22;3.17;;;0.00;99.90;;;;;;7402531;19;19915;-73
2023/03/12 07:24:05;;;;;;;5.43;3.35;;;1.40;99.90;;;;;;7402625;19;19918;-74
2023/03/12 07:26:35;;;;;;;6.30;3.05;;;0.10;99.90;;;;;;7399926;19;20267;-74
2023/03/12 07:29:05;;;;;;;5.55;3.65;;;1.50;99.90;;;;;;7402944;19;19918;-74
2023/03/12 07:31:37;;;;;;;6.90;3.15;;;1.20;99.90;;;;;;7401975;19;20351;-74
2023/03/12 07:34:06;;;;;;;4.78;2.75;;;0.30;99.90;;;;;;7402202;19;19915;-74
2023/03/12 07:36:34;;;;;;;5.90;3.10;;;1.50;99.90;;;;;;7400877;19;19919;-73
2023/03/12 07:39:04;;;;;;;8.00;3.20;;;;;;;;;;7402375;19;19926;-74
2023/03/12 07:41:34;;;;;;;6.97;3.13;;;1.70;99.90;;;;;;7402034;19;19919;-74
2023/03/12 07:44:03;;;;;;;5.75;3.83;;;1.20;99.90;;;;;;7401993;19;19922;-74
2023/03/12 07:46:32;;;;;;;6.10;3.35;;;1.70;99.90;;;;;;7401972;19;19929;-73
2023/03/12 07:49:03;;;;;;;6.18;3.30;;;1.60;99.90;;;;;;7401477;19;19923;-74
2023/03/12 07:51:32;;;;;;;7.78;3.67;;;1.70;99.90;;;;;;7400618;19;19926;-74
2023/03/12 07:54:01;;;;;;;5.15;3.03;;;0.60;99.90;;;;;;7400446;19;19950;-74
2023/03/12 07:56:30;;;;;;;7.68;3.65;;;1.50;99.90;;;;;;7400188;19;19922;-75
2023/03/12 07:58:59;;;;;;;9.32;4.43;;;1.20;99.90;;;;;;7401506;19;20296;-74
2023/03/12 08:01:31;;;;;;;5.40;3.90;;;0.80;99.90;;;;;;7401501;19;19982;-75
2023/03/12 08:04:03;;;;;;;6.18;4.03;;;1.20;99.90;;;;;;7401623;19;19925;-74
2023/03/12 08:06:31;;;;;;;;;;;1.40;99.90;;;;;;7404261;19;19938;-74
2023/03/12 08:09:00;;;;;;;6.32;4.03;;;1.80;99.90;;;;;;7401196;19;19915;-73
2023/03/12 08:11:29;;;;;;;5.90;3.83;;;0.90;99.90;;;;;;7401131;19;19922;-73
2023/03/12 08:13:58;;;;;;;8.13;3.83;;;1.60;99.90;;;;;;7401118;19;19918;-74
2023/03/12 08:16:27;;;;;;;9.18;4.05;;;0.30;99.90;;;;;;7399412;19;20673;-74
2023/03/12 08:18:56;;;;;;;10.80;4.60;;;1.20;99.90;;;;;;7401107;19;19941;-74
2023/03/12 08:21:28;;;;;;;5.35;3.53;;;1.80;99.90;;;;;;7401240;19;19914;-74
2023/03/12 08:23:56;;;;;;;4.82;3.72;;;2.00;99.90;;;;;;7401388;19;19926;-74
2023/03/12 08:26:25;;;;;;;6.07;3.75;;;0.30;99.90;;;;;;7400862;19;19926;-74
2023/03/12 08:28:54;;;;;;;7.07;3.90;;;0.70;99.90;;;;;;7400945;19;19914;-74
2023/03/12 08:31:23;;;;;;;8.25;4.32;;;1.80;99.90;;;;;;7400686;19;19915;-74
2023/03/12 08:33:52;;;;;;;5.20;4.00;;;1.30;99.90;;;;;;7400610;19;19925;-74
2023/03/12 08:36:21;;;;;;;6.97;3.90;;;0.60;99.90;;;;;;7399431;19;20016;-73
2023/03/12 08:38:52;;;;;;;5.68;3.70;;;0.90;99.90;;;;;;7400151;19;19919;-74
2023/03/12 08:41:21;;;;;;;7.25;3.55;;;0.60;99.90;;;;;;7400197;19;19910;-74
2023/03/12 08:43:50;;;;;;;11.02;4.22;;;0.80;99.90;;;;;;7400622;19;19919;-74
2023/03/12 08:46:19;;;;;;;7.18;4.20;;;0.80;99.90;;;;;;7399700;19;19941;-74
2023/03/12 08:48:48;;;;;;;5.45;3.45;;;1.30;99.90;;;;;;7400498;19;19921;-74
2023/03/12 08:51:17;;;;;;;5.90;3.88;;;1.80;99.90;;;;;;7398400;19;19923;-74
2023/03/12 08:53:46;;;;;;;6.05;3.80;;;1.90;99.90;;;;;;7398783;19;19917;-74
2023/03/12 08:56:17;;;;;;;8.65;4.45;;;1.00;99.90;;;;;;7398339;19;19936;-74
2023/03/12 08:58:46;;;;;;;6.22;3.85;;;1.90;99.90;;;;;;7399571;19;19950;-74
2023/03/12 09:01:15;;;;;;;7.18;4.03;;;1.10;99.90;;;;;;7399628;19;19929;-74
2023/03/12 09:03:48;;;;;;;8.25;4.38;;;0.10;99.90;;;;;;7399415;19;19918;-74
2023/03/12 09:06:18;;;;;;;8.52;4.07;;;1.40;99.90;;;;;;7399578;19;19954;-74
2023/03/12 09:08:48;;;;;;;6.47;3.85;;;1.10;99.90;;;;;;7399616;19;19982;-73
2023/03/12 09:11:19;;;;;;;5.75;3.85;;;1.90;99.90;;;;;;7399707;19;19918;-74
2023/03/12 09:13:48;;;;;;;9.43;3.83;;;2.80;99.90;;;;;;7399708;19;19914;-73
2023/03/12 09:16:17;;;;;;;4.20;3.05;;;0.40;99.90;;;;;;7397930;19;20249;-73
2023/03/12 09:18:46;;;;;;;6.25;3.53;;;1.70;99.90;;;;;;7399212;19;19925;-74
2023/03/12 09:21:15;;;;;;;7.88;3.78;;;0.30;99.90;;;;;;7399099;19;19921;-74
2023/03/12 09:23:44;;;;;;;5.05;3.88;;;1.90;99.90;;;;;;7401264;19;19931;-73
2023/03/12 09:26:13;;;;;;;5.82;3.78;;;1.60;99.90;;;;;;7398785;19;19930;-74
2023/03/12 09:28:45;;;;;;;7.53;4.30;;;1.80;99.90;;;;;;7398768;19;19921;-73
2023/03/12 09:31:15;;;;;;;5.15;3.15;;;2.20;99.90;;;;;;7398840;19;19923;-73
2023/03/12 09:33:44;;;;;;;7.68;4.18;;;1.00;99.90;;;;;;7398557;19;19937;-73
2023/03/12 09:36:13;;;;;;;7.00;3.47;;;2.00;99.90;;;;;;7397610;19;19918;-74
2023/03/12 09:38:42;;;;;;;8.93;3.88;;;1.70;99.90;;;;;;7398276;19;19914;-74
2023/03/12 09:41:21;;;;;;;6.93;3.92;;;1.00;99.90;;;;;;7398335;19;19926;-74
2023/03/12 09:44:01;;;;;;;6.30;3.53;;;0.70;99.90;;;;;;7400452;19;19923;-74
2023/03/12 09:46:36;;;;;;;10.38;4.45;;;1.40;99.90;;;;;;7397801;19;19931;-73
2023/03/12 09:49:13;;;;;;;6.05;3.60;;;2.10;99.90;;;;;;7399980;19;19982;-73
2023/03/12 09:51:48;;;;;;;6.40;3.97;;;0.70;99.90;;;;;;7403209;19;19943;-74
2023/03/12 09:54:27;;;;;;;7.93;4.13;;;2.10;99.90;;;;;;7403017;19;19938;-73
2023/03/12 09:56:59;;;;;;;6.90;3.72;;;2.00;99.90;;;;;;7403084;19;19923;-73
2023/03/12 09:59:30;;;;;;;;;;;1.50;99.90;;;;;;7407034;19;19914;-73
2023/03/12 10:02:03;;;;;;;9.27;3.08;;;0.60;99.90;;;;;;7404890;19;19929;-73
2023/03/12 10:04:43;;;;;;;6.18;3.55;;;1.20;99.90;;;;;;7404748;19;19926;-73
2023/03/12 10:07:18;;;;;;;5.97;3.78;;;0.40;99.90;;;;;;7404743;19;20260;-74
2023/03/12 10:10:22;;;;;;;6.82;3.78;;;0.70;99.90;;;;;;7404392;19;19924;-73
2023/03/12 10:13:10;;;;;;;6.00;3.75;;;0.80;99.90;;;;;;7404456;19;19917;-73
2023/03/12 10:15:52;;;;;;;4.25;3.47;;;1.60;99.90;;;;;;7404588;19;19919;-74
2023/03/12 10:18:33;;;;;;;6.90;3.95;;;0.60;99.90;;;;;;7405055;19;19915;-74
2023/03/12 10:21:12;;;;;;;8.07;4.22;;;1.40;99.90;;;;;;7404605;19;19931;-73
2023/03/12 10:23:55;;;;;;;5.28;4.20;;;1.10;99.90;;;;;;7404083;19;19911;-74
2023/03/12 10:26:27;;;;;;;8.18;4.20;;;0.30;99.90;;;;;;7404875;19;20250;-73
2023/03/12 10:28:59;;;;;;;6.40;4.10;;;1.10;99.90;;;;;;7403965;19;19922;-73
2023/03/12 10:31:36;;;;;;;5.05;3.65;;;1.40;99.90;;;;;;7404134;19;19925;-73
2023/03/12 10:34:16;;;;;;;6.38;3.47;;;0.70;99.90;;;;;;7403880;19;19914;-73
2023/03/12 10:36:47;;;;;;;4.75;3.80;;;1.10;99.90;;;;;;7402390;19;19926;-73
2023/03/12 10:39:18;;;;;;;5.30;4.07;;;0.90;99.90;;;;;;7403424;19;19928;-73
2023/03/12 10:41:49;;;;;;;5.32;4.43;;;0.80;99.90;;;;;;7403459;19;19921;-73
2023/03/12 10:44:21;;;;;;;8.15;4.38;;;1.90;99.90;;;;;;7407114;19;20013;-73
2023/03/12 10:47:02;;;;;;;6.28;4.07;;;1.90;99.90;;;;;;7403417;19;19919;-73
2023/03/12 10:49:33;;;;;;;6.93;3.75;;;0.80;99.90;;;;;;7403088;19;19940;-74
2023/03/12 10:52:06;;;;;;;7.78;4.22;;;1.70;99.90;;;;;;7401493;19;19933;-74
2023/03/12 10:54:39;;;;;;;10.43;5.25;;;1.20;99.90;;;;;;7401387;19;19919;-74
2023/03/12 10:57:09;;;;;;;6.05;4.30;;;1.00;99.90;;;;;;7401745;19;19939;-74
2023/03/12 10:59:41;;;;;;;6.97;4.32;;;1.90;99.90;;;;;;7402785;19;19911;-74
2023/03/12 11:02:33;;;;;;;5.63;4.25;;;1.70;99.90;;;;;;7402745;19;19953;-73
2023/03/12 11:05:05;;;;;;;6.45;4.47;;;0.50;99.90;;;;;;7403285;19;19926;-73
2023/03/12 11:07:36;;;;;;;8.88;4.90;;;1.40;99.90;;;;;;7402727;19;20327;-73
2023/03/12 11:10:17;;;;;;;6.05;4.20;;;0.70;99.90;;;;;;7402922;19;19918;-73
2023/03/12 11:13:05;;;;;;;7.25;4.50;;;1.90;99.90;;;;;;7402688;19;20412;-73
2023/03/12 11:15:43;;;;;;;6.80;4.82;;;1.70;99.90;;;;;;7400792;19;19926;-73
2023/03/12 11:18:26;;;;;;;7.00;4.18;;;1.30;99.90;;;;;;7402388;19;19925;-73
2023/03/12 11:20:58;;;;;;;7.32;5.03;;;1.40;99.90;;;;;;7402253;19;20408;-73
2023/03/12 11:23:30;;;;;;;5.25;4.35;;;0.50;99.90;;;;;;7402832;19;19951;-74
2023/03/12 11:26:02;;;;;;;5.53;4.70;;;0.90;99.90;;;;;;7402429;19;20344;-73
2023/03/12 11:28:39;;;;;;;7.05;5.13;;;1.30;99.90;;;;;;7402090;19;20294;-73
2023/03/12 11:31:15;;;;;;;6.75;4.60;;;1.10;99.90;;;;;;7402191;19;19918;-72
2023/03/12 11:33:46;;;;;;;7.35;4.78;;;1.00;99.90;;;;;;7402114;19;19929;-73
2023/03/12 11:36:38;;;;;;;8.25;4.75;;;0.50;99.90;;;;;;7401651;19;19919;-73
2023/03/12 11:39:18;;;;;;;6.72;4.25;;;2.10;99.90;;;;;;7401979;19;19915;-73
2023/03/12 11:42:01;;;;;;;6.72;4.82;;;1.40;99.90;;;;;;7402206;19;19922;-73
2023/03/12 11:44:36;;;;;;;7.70;4.97;;;2.20;99.90;;;;;;7405383;19;19919;-72
2023/03/12 11:47:21;;;;;;;9.00;5.10;;;0.60;99.90;;;;;;7401619;19;19910;-74
2023/03/12 11:50:05;;;;;;;5.70;3.58;;;1.80;99.90;;;;;;7401483;19;19918;-73
2023/03/12 11:52:44;;;;;;;7.95;5.03;;;2.20;99.90;;;;;;7400551;19;19928;-73
2023/03/12 11:55:27;;;;;;;9.80;5.22;;;0.60;99.90;;;;;;7401560;19;20274;-73
2023/03/12 11:58:07;;;;;;;7.60;4.57;;;2.00;99.90;;;;;;7400437;19;19934;-73
2023/03/12 12:00:43;;;;;;;9.18;5.10;;;1.40;99.90;;;;;;7401258;19;20261;-73
2023/03/12 12:03:29;;;;;;;7.18;5.05;;;2.40;99.90;;;;;;7401911;19;20023;-72
2023/03/12 12:06:07;;;;;;;9.95;5.35;;;1.20;99.90;;;;;;7400914;19;19938;-73
2023/03/12 12:08:54;;;;;;;6.68;4.65;;;1.40;99.90;;;;;;7400280;19;19911;-73
2023/03/12 12:11:36;;;;;;;7.53;4.97;;;2.30;99.90;;;;;;7400237;19;19922;-73
2023/03/12 12:14:21;;;;;;;8.48;5.65;;;2.20;99.90;;;;;;7401139;19;19918;-72
2023/03/12 12:17:07;;;;;;;7.95;5.43;;;1.70;99.90;;;;;;7399742;19;19932;-73
2023/03/12 12:19:53;;;;;;;5.90;4.82;;;1.40;99.90;;;;;;7400663;19;20031;-73
2023/03/12 12:22:35;;;;;;;8.43;5.15;;;1.80;99.90;;;;;;7400579;19;19918;-72
2023/03/12 12:25:25;;;;;;;7.50;5.43;;;1.20;99.90;;;;;;7400970;19;20272;-72
2023/03/12 12:28:10;;;;;;;9.02;5.20;;;1.10;99.90;;;;;;7398868;19;19942;-72
2023/03/12 12:30:55;;;;;;;7.63;4.22;;;2.50;99.90;;;;;;7400482;19;19929;-74
2023/03/12 12:33:35;;;;;;;8.93;5.88;;;1.90;99.90;;;;;;7400395;19;19925;-73
2023/03/12 12:36:05;;;;;;;5.57;3.67;;;2.30;99.90;;;;;;7400718;19;19986;-73
2023/03/12 12:38:40;;;;;;;9.63;5.55;;;1.90;99.90;;;;;;7398867;19;19927;-73
2023/03/12 12:41:13;;;;;;;9.95;5.75;;;2.80;99.90;;;;;;7399773;19;20262;-73
2023/03/12 12:43:43;;;;;;;7.97;5.53;;;3.10;99.90;;;;;;7404276;19;19921;-73
2023/03/12 12:46:17;;;;;;;7.85;5.00;;;1.50;99.90;;;;;;7399437;19;19954;-74
2023/03/12 12:48:50;;;;;;;7.38;5.03;;;2.10;99.90;;;;;;7399954;19;19950;-74
2023/03/12 12:51:23;;;;;;;10.07;5.70;;;3.10;99.90;;;;;;7398907;19;19922;-73
2023/03/12 12:54:02;;;;;;;8.57;5.82;;;2.20;99.90;;;;;;7398423;19;19926;-73
2023/03/12 12:56:35;;;;;;;7.90;5.60;;;2.90;99.90;;;;;;7399879;19;19915;-73
2023/03/12 12:59:23;;;;;;;7.45;5.18;;;3.30;99.90;;;;;;7399757;19;19914;-73
2023/03/12 13:01:55;;;;;;;8.80;5.75;;;2.60;99.90;;;;;;7399383;19;19978;-73
2023/03/12 13:04:27;;;;;;;9.25;5.78;;;1.50;99.90;;;;;;7399448;19;19935;-73
2023/03/12 13:07:00;;;;;;;7.68;6.13;;;2.00;99.90;;;;;;7399095;19;19926;-73
2023/03/12 13:09:43;;;;;;;9.27;5.82;;;2.00;99.90;;;;;;7399195;19;19974;-73
2023/03/12 13:12:20;;;;;;;9.05;5.82;;;3.20;99.90;;;;;;7396967;19;19933;-73
2023/03/12 13:14:50;;;;;;;7.68;4.40;;;3.30;99.90;;;;;;7402542;19;19922;-73
2023/03/12 13:17:36;;;;;;;9.55;6.22;;;2.40;99.90;;;;;;7397288;19;19918;-72
2023/03/12 13:20:15;;;;;;;9.63;5.38;;;2.20;99.90;;;;;;7400023;19;19922;-73
2023/03/12 13:23:12;;;;;;;8.57;6.25;;;3.10;99.90;;;;;;7401051;19;19922;-73